createdAt,value
2022-09-12T00:00:51.625Z,13.97
2022-09-12T00:03:18.113Z,13.92
2022-09-12T00:05:46.608Z,13.98
2022-09-12T00:08:13.989Z,14.02
2022-09-12T00:10:42.648Z,14.02
2022-09-12T00:13:10.156Z,14.04
2022-09-12T00:15:43.548Z,13.96
2022-09-12T00:18:14.438Z,13.92
2022-09-12T00:20:45.259Z,13.91
2022-09-12T00:23:13.367Z,13.91
2022-09-12T00:25:48.617Z,13.93
2022-09-12T00:28:17.234Z,13.90
2022-09-12T00:30:45.135Z,13.88
2022-09-12T00:33:13.482Z,13.88
2022-09-12T00:35:53.435Z,13.91
2022-09-12T00:38:21.167Z,13.91
2022-09-12T00:40:48.704Z,13.98
2022-09-12T00:43:36.054Z,13.96
2022-09-12T00:46:27.762Z,13.98
2022-09-12T00:49:05.977Z,13.93
2022-09-12T00:51:35.707Z,13.95
2022-09-12T00:54:08.175Z,13.93
2022-09-12T00:56:36.623Z,13.95
2022-09-12T00:59:11.555Z,13.91
2022-09-12T01:01:40.781Z,13.91
2022-09-12T01:04:08.907Z,13.85
2022-09-12T01:06:43.225Z,13.79
2022-09-12T01:09:17.117Z,13.86
2022-09-12T01:11:46.927Z,13.70
2022-09-12T01:14:15.431Z,13.67
2022-09-12T01:16:42.221Z,13.61
2022-09-12T01:19:46.319Z,13.55
2022-09-12T01:22:35.652Z,13.55
2022-09-12T01:25:15.354Z,13.46
2022-09-12T01:28:18.793Z,13.37
2022-09-12T01:31:15.789Z,13.31
2022-09-12T01:36:57.514Z,13.20
2022-09-12T01:39:36.702Z,13.17
2022-09-12T01:42:25.948Z,13.11
2022-09-12T01:45:28.446Z,13.05
2022-09-12T01:48:16.187Z,13.02
2022-09-12T01:50:57.554Z,13.01
2022-09-12T01:53:29.483Z,13.00
2022-09-12T01:56:22.609Z,13.01
2022-09-12T01:59:21.490Z,13.02
2022-09-12T02:02:00.590Z,13.04
2022-09-12T02:04:34.310Z,13.03
2022-09-12T02:07:13.748Z,13.05
2022-09-12T02:09:52.897Z,13.05
2022-09-12T02:12:26.416Z,13.06
2022-09-12T02:14:59.983Z,13.08
2022-09-12T02:17:27.054Z,13.08
2022-09-12T02:19:59.273Z,13.07
2022-09-12T02:22:29.339Z,13.09
2022-09-12T02:24:59.394Z,13.09
2022-09-12T02:27:41.271Z,13.08
2022-09-12T02:30:09.205Z,13.10
2022-09-12T02:32:54.233Z,13.08
2022-09-12T02:35:32.940Z,13.08
2022-09-12T02:38:09.658Z,13.16
2022-09-12T02:40:36.126Z,13.17
2022-09-12T02:43:04.921Z,13.15
2022-09-12T02:45:34.371Z,13.14
2022-09-12T02:48:17.504Z,13.22
2022-09-12T02:50:44.910Z,13.18
2022-09-12T02:53:11.514Z,13.14
2022-09-12T02:55:40.205Z,13.13
2022-09-12T02:58:11.213Z,13.05
2022-09-12T03:00:58.721Z,13.13
2022-09-12T03:03:43.670Z,13.10
2022-09-12T03:06:22.788Z,13.14
2022-09-12T03:09:15.956Z,13.15
2022-09-12T03:11:50.916Z,13.08
2022-09-12T03:14:26.476Z,13.07
2022-09-12T03:17:07.540Z,13.08
2022-09-12T03:19:36.970Z,13.09
2022-09-12T03:22:14.258Z,13.13
2022-09-12T03:24:52.866Z,13.13
2022-09-12T03:27:27.488Z,13.13
2022-09-12T03:29:55.810Z,13.08
2022-09-12T03:32:41.141Z,13.00
2022-09-12T03:35:07.941Z,12.98
2022-09-12T03:37:34.405Z,12.97
2022-09-12T03:40:01.108Z,12.97
2022-09-12T03:42:27.584Z,12.96
2022-09-12T03:44:54.128Z,12.97
2022-09-12T03:47:20.567Z,13.01
2022-09-12T03:49:47.021Z,12.99
2022-09-12T03:52:13.517Z,12.98
2022-09-12T03:54:39.976Z,12.96
2022-09-12T03:57:06.481Z,12.97
2022-09-12T03:59:32.953Z,12.98
2022-09-12T04:01:59.563Z,12.94
2022-09-12T04:04:26.071Z,12.89
2022-09-12T04:06:52.480Z,12.88
2022-09-12T04:09:19.182Z,12.86
2022-09-12T04:11:45.596Z,12.83
2022-09-12T04:14:12.196Z,12.82
2022-09-12T04:16:38.668Z,12.77
2022-09-12T04:19:05.156Z,12.73
2022-09-12T04:21:32.090Z,12.69
2022-09-12T04:23:58.468Z,12.67
2022-09-12T04:26:24.897Z,12.62
2022-09-12T04:28:54.818Z,12.59
2022-09-12T04:31:22.721Z,12.54
2022-09-12T04:33:57.360Z,12.54
2022-09-12T04:36:24.679Z,12.53
2022-09-12T04:38:51.912Z,12.54
2022-09-12T04:41:20.925Z,12.54
2022-09-12T04:43:48.421Z,12.56
2022-09-12T04:46:17.338Z,12.54
2022-09-12T04:48:44.327Z,12.54
2022-09-12T04:51:14.142Z,12.55
2022-09-12T04:53:41.299Z,12.57
2022-09-12T04:56:10.106Z,12.59
2022-09-12T04:58:37.699Z,12.63
2022-09-12T05:01:06.364Z,12.65
2022-09-12T05:03:33.357Z,12.68
2022-09-12T05:06:02.017Z,12.71
2022-09-12T05:08:28.445Z,12.77
2022-09-12T05:10:55.209Z,12.85
2022-09-12T05:13:22.198Z,12.86
2022-09-12T05:15:55.164Z,12.88
2022-09-12T05:18:21.583Z,12.94
2022-09-12T05:20:47.982Z,12.97
2022-09-12T05:23:14.414Z,12.98
2022-09-12T05:25:48.539Z,12.99
2022-09-12T05:28:14.963Z,13.02
2022-09-12T05:30:41.398Z,13.03
2022-09-12T05:33:07.852Z,13.08
2022-09-12T05:35:34.392Z,13.14
2022-09-12T05:38:00.823Z,13.19
2022-09-12T05:40:27.214Z,13.22
2022-09-12T05:42:53.789Z,13.25
2022-09-12T05:45:21.169Z,13.29
2022-09-12T05:47:47.670Z,13.35
2022-09-12T05:50:14.216Z,13.37
2022-09-12T05:52:40.952Z,13.43
2022-09-12T05:55:07.801Z,13.42
2022-09-12T05:57:34.140Z,13.48
2022-09-12T06:00:01.500Z,13.54
2022-09-12T06:02:28.008Z,13.55
2022-09-12T06:04:54.452Z,13.55
2022-09-12T06:07:20.886Z,13.51
2022-09-12T06:09:47.322Z,13.59
2022-09-12T06:12:13.774Z,13.61
2022-09-12T06:14:40.221Z,13.55
2022-09-12T06:17:06.657Z,13.62
2022-09-12T06:19:33.114Z,13.64
2022-09-12T06:21:59.546Z,13.70
2022-09-12T06:24:26.065Z,13.71
2022-09-12T06:26:55.419Z,13.75
2022-09-12T06:29:21.956Z,13.80
2022-09-12T06:31:48.652Z,13.82
2022-09-12T06:34:16.222Z,13.87
2022-09-12T06:36:46.398Z,13.88
2022-09-12T06:39:21.073Z,13.92
2022-09-12T06:41:49.434Z,13.94
2022-09-12T06:44:19.562Z,13.97
2022-09-12T06:46:46.226Z,13.98
2022-09-12T06:49:12.827Z,14.00
2022-09-12T06:51:39.378Z,14.02
2022-09-12T06:54:05.811Z,14.02
2022-09-12T06:56:32.301Z,14.03
2022-09-12T06:58:59.935Z,14.04
2022-09-12T07:01:29.444Z,14.05
2022-09-12T07:03:58.797Z,14.03
2022-09-12T07:06:31.710Z,14.08
2022-09-12T07:08:59.692Z,14.08
2022-09-12T07:11:34.324Z,14.04
2022-09-12T07:14:03.097Z,14.03
2022-09-12T07:16:30.361Z,14.03
2022-09-12T07:18:59.655Z,14.07
2022-09-12T07:21:27.226Z,14.00
2022-09-12T07:23:55.356Z,14.03
2022-09-12T07:26:21.899Z,14.06
2022-09-12T07:29:07.889Z,14.09
2022-09-12T07:31:39.569Z,14.10
2022-09-12T07:34:06.845Z,14.06
2022-09-12T07:36:34.380Z,14.03
2022-09-12T07:39:01.622Z,14.09
2022-09-12T07:41:30.278Z,14.14
2022-09-12T07:43:59.237Z,14.20
2022-09-12T07:46:27.126Z,14.32
2022-09-12T07:48:55.113Z,14.39
2022-09-12T07:51:22.771Z,14.42
2022-09-12T07:53:49.350Z,14.46
2022-09-12T07:56:16.474Z,14.50
2022-09-12T07:58:44.008Z,14.57
2022-09-12T08:01:14.375Z,14.63
2022-09-12T08:03:42.620Z,14.75
2022-09-12T08:06:10.618Z,14.80
2022-09-12T08:08:38.690Z,14.80
2022-09-12T08:11:08.453Z,14.80
2022-09-12T08:13:37.023Z,14.83
2022-09-12T08:16:06.533Z,14.88
2022-09-12T08:18:33.273Z,14.85
2022-09-12T08:21:02.176Z,14.84
2022-09-12T08:23:29.324Z,14.95
2022-09-12T08:25:57.426Z,15.16
2022-09-12T08:28:25.580Z,15.29
2022-09-12T08:30:53.594Z,15.37
2022-09-12T08:33:20.787Z,15.46
2022-09-12T08:35:47.561Z,15.59
2022-09-12T08:38:13.974Z,15.72
2022-09-12T08:41:00.147Z,15.86
2022-09-12T08:43:38.501Z,15.94
2022-09-12T08:46:13.871Z,15.96
2022-09-12T08:48:42.391Z,15.94
2022-09-12T08:51:13.151Z,15.96
2022-09-12T08:53:41.261Z,15.93
2022-09-12T08:56:11.691Z,16.05
2022-09-12T08:58:43.266Z,16.17
2022-09-12T09:01:32.988Z,16.44
2022-09-12T09:04:18.165Z,16.65
2022-09-12T09:07:06.585Z,16.80
2022-09-12T09:09:59.194Z,16.92
2022-09-12T09:12:37.538Z,17.03
2022-09-12T09:15:35.994Z,17.13
2022-09-12T09:18:14.253Z,17.08
2022-09-12T09:20:52.082Z,17.02
2022-09-12T09:23:30.981Z,16.98
2022-09-12T09:26:26.655Z,16.94
2022-09-12T09:28:57.895Z,17.02
2022-09-12T09:31:26.543Z,17.13
2022-09-12T09:33:55.505Z,17.33
2022-09-12T09:36:25.135Z,17.38
2022-09-12T09:39:17.429Z,17.42
2022-09-12T09:42:05.461Z,17.41
2022-09-12T09:44:32.301Z,17.27
2022-09-12T09:46:59.774Z,17.08
2022-09-12T09:49:30.251Z,17.06
2022-09-12T09:52:00.119Z,17.29
2022-09-12T09:54:57.409Z,17.42
2022-09-12T09:57:39.388Z,17.79
2022-09-12T10:00:34.985Z,18.04
2022-09-12T10:03:14.889Z,18.05
2022-09-12T10:05:57.184Z,17.95
2022-09-12T10:08:26.811Z,17.84
2022-09-12T10:11:01.974Z,17.75
2022-09-12T10:13:28.454Z,17.66
2022-09-12T10:16:02.163Z,17.61
2022-09-12T10:18:42.541Z,17.57
2022-09-12T10:21:16.525Z,17.52
2022-09-12T10:23:44.011Z,17.39
2022-09-12T10:26:14.304Z,17.39
2022-09-12T10:28:48.028Z,17.38
2022-09-12T10:31:24.176Z,17.30
2022-09-12T10:33:53.993Z,17.37
2022-09-12T10:36:20.980Z,17.31
2022-09-12T10:38:54.844Z,17.40
2022-09-12T10:41:22.089Z,17.43
2022-09-12T10:43:49.123Z,17.30
2022-09-12T10:46:18.430Z,17.35
2022-09-12T10:48:47.172Z,17.38
2022-09-12T10:51:28.712Z,17.40
2022-09-12T10:53:57.538Z,17.42
2022-09-12T10:56:30.335Z,17.59
2022-09-12T10:59:20.213Z,17.62
2022-09-12T11:01:58.429Z,17.66
2022-09-12T11:05:02.383Z,17.66
2022-09-12T11:07:48.408Z,17.83
2022-09-12T11:10:44.458Z,17.89
2022-09-12T11:13:48.744Z,17.98
2022-09-12T11:16:36.298Z,18.11
2022-09-12T11:19:15.741Z,18.05
2022-09-12T11:22:13.186Z,18.05
2022-09-12T11:25:22.375Z,18.22
2022-09-12T11:28:06.933Z,18.27
2022-09-12T11:30:47.799Z,18.20
2022-09-12T11:33:43.178Z,18.39
2022-09-12T11:36:45.767Z,18.35
2022-09-12T11:39:17.300Z,18.42
2022-09-12T11:42:00.163Z,18.39
2022-09-12T11:44:38.704Z,18.37
2022-09-12T11:47:11.685Z,18.33
2022-09-12T11:49:43.835Z,18.32
2022-09-12T11:52:19.910Z,18.48
2022-09-12T11:55:04.983Z,18.71
2022-09-12T11:57:36.925Z,18.86
2022-09-12T12:00:12.624Z,19.22
2022-09-12T12:02:41.814Z,19.26
2022-09-12T12:05:43.106Z,19.28
2022-09-12T12:08:11.032Z,19.22
2022-09-12T12:10:42.225Z,19.12
2022-09-12T12:13:19.331Z,19.12
2022-09-12T12:15:53.065Z,19.15
2022-09-12T12:18:24.743Z,19.10
2022-09-12T12:20:52.380Z,18.94
2022-09-12T12:23:31.832Z,18.91
2022-09-12T12:26:00.753Z,18.75
2022-09-12T12:28:42.431Z,18.88
2022-09-12T12:31:10.585Z,18.93
2022-09-12T12:33:37.051Z,18.97
2022-09-12T12:36:28.359Z,19.05
2022-09-12T12:38:55.203Z,19.00
2022-09-12T12:41:21.736Z,19.00
2022-09-12T12:43:53.124Z,18.85
2022-09-12T12:46:24.667Z,18.86
2022-09-12T12:49:16.089Z,19.01
2022-09-12T12:51:57.412Z,19.09
2022-09-12T12:54:47.178Z,19.19
2022-09-12T12:57:23.245Z,19.22
2022-09-12T13:03:08.626Z,19.41
2022-09-12T13:05:39.779Z,19.57
2022-09-12T13:08:28.130Z,19.71
2022-09-12T13:10:59.702Z,19.77
2022-09-12T13:13:36.718Z,19.86
2022-09-12T13:16:03.675Z,19.79
2022-09-12T13:18:42.396Z,19.99
2022-09-12T13:21:13.201Z,20.18
2022-09-12T13:23:40.717Z,20.23
2022-09-12T13:26:12.825Z,20.16
2022-09-12T13:28:39.310Z,20.19
2022-09-12T13:31:20.768Z,20.09
2022-09-12T13:33:51.120Z,20.14
2022-09-12T13:36:23.598Z,20.05
2022-09-12T13:39:28.123Z,19.99
2022-09-12T13:42:05.070Z,20.09
2022-09-12T13:44:38.846Z,19.98
2022-09-12T13:47:05.584Z,19.96
2022-09-12T13:49:33.557Z,19.94
2022-09-12T13:52:07.174Z,19.85
2022-09-12T13:54:37.899Z,19.89
2022-09-12T13:57:05.778Z,19.87
2022-09-12T13:59:42.746Z,19.81
2022-09-12T14:02:24.062Z,19.76
2022-09-12T14:05:09.200Z,19.77
2022-09-12T14:07:51.152Z,19.74
2022-09-12T14:10:23.358Z,19.78
2022-09-12T14:12:51.890Z,19.76
2022-09-12T14:15:24.573Z,19.62
2022-09-12T14:17:53.797Z,19.70
2022-09-12T14:20:23.316Z,19.63
2022-09-12T14:22:53.083Z,19.55
2022-09-12T14:25:22.593Z,19.47
2022-09-12T14:27:54.033Z,19.42
2022-09-12T14:30:28.027Z,19.35
2022-09-12T14:33:09.802Z,19.30
2022-09-12T14:36:09.993Z,19.28
2022-09-12T14:38:44.804Z,19.23
2022-09-12T14:41:15.011Z,19.17
2022-09-12T14:43:45.712Z,19.17
2022-09-12T14:46:30.541Z,19.20
2022-09-12T14:49:02.023Z,19.26
2022-09-12T14:51:33.940Z,19.16
2022-09-12T14:54:00.906Z,19.13
2022-09-12T14:56:53.261Z,19.15
2022-09-12T14:59:24.341Z,19.11
2022-09-12T15:01:50.804Z,19.02
2022-09-12T15:04:37.736Z,19.01
2022-09-12T15:07:31.357Z,18.98
2022-09-12T15:09:59.798Z,18.98
2022-09-12T15:12:26.807Z,18.96
2022-09-12T15:14:58.355Z,18.95
2022-09-12T15:17:24.973Z,18.94
2022-09-12T15:19:51.453Z,18.93
2022-09-12T15:22:18.756Z,18.91
2022-09-12T15:24:45.232Z,18.90
2022-09-12T15:27:12.553Z,18.85
2022-09-12T15:29:39.281Z,18.86
2022-09-12T15:32:06.848Z,18.82
2022-09-12T15:34:33.323Z,18.77
2022-09-12T15:37:00.071Z,18.79
2022-09-12T15:39:27.579Z,18.71
2022-09-12T15:41:54.165Z,18.66
2022-09-12T15:44:20.961Z,18.62
2022-09-12T15:46:47.405Z,18.59
2022-09-12T15:49:14.005Z,18.56
2022-09-12T15:51:40.540Z,18.53
2022-09-12T15:54:07.149Z,18.50
2022-09-12T15:56:33.647Z,18.48
2022-09-12T15:59:00.394Z,18.41
2022-09-12T16:01:28.827Z,18.38
2022-09-12T16:03:55.923Z,18.33
2022-09-12T16:06:22.682Z,18.31
2022-09-12T16:08:49.309Z,18.27
2022-09-12T16:11:22.468Z,18.23
2022-09-12T16:13:49.237Z,18.20
2022-09-12T16:16:15.647Z,18.16
2022-09-12T16:18:42.329Z,18.11
2022-09-12T16:21:12.759Z,18.04
2022-09-12T16:23:45.523Z,17.94
2022-09-12T16:26:12.000Z,17.89
2022-09-12T16:28:38.911Z,17.83
2022-09-12T16:31:06.800Z,17.77
2022-09-12T16:33:33.564Z,17.72
2022-09-12T16:36:03.999Z,17.67
2022-09-12T16:38:31.558Z,17.62
2022-09-12T16:41:06.461Z,17.58
2022-09-12T16:43:34.812Z,17.52
2022-09-12T16:46:13.363Z,17.47
2022-09-12T16:48:52.157Z,17.42
2022-09-12T16:51:25.924Z,17.33
2022-09-12T16:53:52.807Z,17.28
2022-09-12T16:56:19.405Z,17.24
2022-09-12T16:58:46.566Z,17.20
2022-09-12T17:01:16.554Z,17.15
2022-09-12T17:03:43.621Z,17.08
2022-09-12T17:06:13.313Z,17.03
2022-09-12T17:08:46.714Z,16.98
2022-09-12T17:11:26.874Z,16.93
2022-09-12T17:14:11.343Z,16.86
2022-09-12T17:16:46.947Z,16.80
2022-09-12T17:19:19.437Z,16.70
2022-09-12T17:21:47.595Z,16.64
2022-09-12T17:24:14.593Z,16.53
2022-09-12T17:26:41.114Z,16.44
2022-09-12T17:29:07.945Z,16.39
2022-09-12T17:31:34.433Z,16.30
2022-09-12T17:34:02.057Z,16.23
2022-09-12T17:36:29.549Z,16.18
2022-09-12T17:38:56.074Z,16.12
2022-09-12T17:41:25.978Z,16.07
2022-09-12T17:43:56.244Z,16.02
2022-09-12T17:46:31.046Z,15.98
2022-09-12T17:48:58.579Z,15.95
2022-09-12T17:51:28.923Z,15.90
2022-09-12T17:53:59.113Z,15.85
2022-09-12T17:56:27.941Z,15.78
2022-09-12T17:58:55.835Z,15.75
2022-09-12T18:01:41.174Z,15.71
2022-09-12T18:04:07.926Z,15.66
2022-09-12T18:06:34.653Z,15.62
2022-09-12T18:09:02.937Z,15.56
2022-09-12T18:11:30.004Z,15.52
2022-09-12T18:13:58.551Z,15.49
2022-09-12T18:16:26.234Z,15.45
2022-09-12T18:18:52.762Z,15.41
2022-09-12T18:21:19.872Z,15.35
2022-09-12T18:23:47.119Z,15.31
2022-09-12T18:26:14.108Z,15.25
2022-09-12T18:28:43.411Z,15.20
2022-09-12T18:31:15.559Z,15.13
2022-09-12T18:33:42.252Z,15.07
2022-09-12T18:36:10.857Z,15.01
2022-09-12T18:38:38.147Z,14.98
2022-09-12T18:41:10.197Z,14.93
2022-09-12T18:43:37.605Z,14.89
2022-09-12T18:46:08.970Z,14.83
2022-09-12T18:48:36.045Z,14.77
2022-09-12T18:51:23.168Z,14.72
2022-09-12T18:53:54.758Z,14.67
2022-09-12T18:56:23.201Z,14.62
2022-09-12T18:58:52.536Z,14.56
2022-09-12T19:01:27.796Z,14.49
2022-09-12T19:03:55.121Z,14.43
2022-09-12T19:06:24.957Z,14.32
2022-09-12T19:08:52.900Z,14.27
2022-09-12T19:11:21.197Z,14.24
2022-09-12T19:13:49.678Z,14.20
2022-09-12T19:16:18.812Z,14.14
2022-09-12T19:18:48.016Z,14.09
2022-09-12T19:21:19.585Z,14.08
2022-09-12T19:23:46.297Z,14.03
2022-09-12T19:26:14.851Z,14.01
2022-09-12T19:28:42.403Z,13.97
2022-09-12T19:31:15.431Z,13.91
2022-09-12T19:33:42.375Z,13.84
2022-09-12T19:36:33.609Z,13.79
2022-09-12T19:39:01.843Z,13.73
2022-09-12T19:41:28.288Z,13.68
2022-09-12T19:43:56.134Z,13.63
2022-09-12T19:46:24.575Z,13.57
2022-09-12T19:48:52.475Z,13.52
2022-09-12T19:51:20.632Z,13.47
2022-09-12T19:53:47.510Z,13.39
2022-09-12T19:56:15.043Z,13.34
2022-09-12T19:58:44.235Z,13.27
2022-09-12T20:01:25.726Z,13.21
2022-09-12T20:03:55.608Z,13.17
2022-09-12T20:06:22.570Z,13.15
2022-09-12T20:08:49.414Z,13.08
2022-09-12T20:11:19.049Z,13.03
2022-09-12T20:13:46.247Z,12.98
2022-09-12T20:16:22.002Z,12.91
2022-09-12T20:18:53.695Z,12.87
2022-09-12T20:21:24.950Z,12.82
2022-09-12T20:23:51.387Z,12.77
2022-09-12T20:26:20.182Z,12.72
2022-09-12T20:28:47.089Z,12.67
2022-09-12T20:31:15.881Z,12.62
2022-09-12T20:33:42.881Z,12.55
2022-09-12T20:36:09.231Z,12.52
2022-09-12T20:38:36.489Z,12.50
2022-09-12T20:41:04.859Z,12.45
2022-09-12T20:43:31.777Z,12.39
2022-09-12T20:46:05.055Z,12.36
2022-09-12T20:48:32.161Z,12.33
2022-09-12T20:50:59.726Z,12.29
2022-09-12T20:53:26.405Z,12.27
2022-09-12T20:55:53.143Z,12.25
2022-09-12T20:58:20.491Z,12.21
2022-09-12T21:00:47.946Z,12.18
2022-09-12T21:03:15.899Z,12.15
2022-09-12T21:05:43.462Z,12.13
2022-09-12T21:08:10.646Z,12.09
2022-09-12T21:10:37.330Z,12.06
2022-09-12T21:13:03.726Z,12.00
2022-09-12T21:15:30.159Z,11.95
2022-09-12T21:17:57.743Z,11.91
2022-09-12T21:20:24.322Z,11.89
2022-09-12T21:22:50.846Z,11.86
2022-09-12T21:25:17.354Z,11.82
2022-09-12T21:27:43.749Z,11.80
2022-09-12T21:30:10.697Z,11.76
2022-09-12T21:32:37.085Z,11.71
2022-09-12T21:35:05.198Z,11.68
2022-09-12T21:37:32.506Z,11.68
2022-09-12T21:39:59.534Z,11.65
2022-09-12T21:42:26.384Z,11.61
2022-09-12T21:44:52.914Z,11.59
2022-09-12T21:47:19.502Z,11.58
2022-09-12T21:49:45.983Z,11.58
2022-09-12T21:52:12.733Z,11.55
2022-09-12T21:54:39.209Z,11.51
2022-09-12T21:57:05.694Z,11.49
2022-09-12T21:59:32.127Z,11.47
2022-09-12T22:01:58.589Z,11.45
2022-09-12T22:04:26.292Z,11.43
2022-09-12T22:06:52.868Z,11.39
2022-09-12T22:09:19.502Z,11.37
2022-09-12T22:11:47.114Z,11.32
2022-09-12T22:14:13.711Z,11.28
2022-09-12T22:16:40.497Z,11.23
2022-09-12T22:19:06.973Z,11.21
2022-09-12T22:21:33.449Z,11.19
2022-09-12T22:24:18.308Z,11.16
2022-09-12T22:26:46.385Z,11.14
2022-09-12T22:29:15.635Z,11.11
2022-09-12T22:31:42.519Z,11.09
2022-09-12T22:34:09.010Z,11.10
2022-09-12T22:36:38.731Z,11.08
2022-09-12T22:39:06.130Z,11.06
2022-09-12T22:41:32.535Z,11.00
2022-09-12T22:43:59.176Z,11.00
2022-09-12T22:46:26.014Z,10.97
2022-09-12T22:48:52.594Z,10.95
2022-09-12T22:51:19.088Z,10.93
2022-09-12T22:53:45.519Z,10.92
2022-09-12T22:56:11.954Z,10.89
2022-09-12T22:58:38.653Z,10.87
2022-09-12T23:01:06.272Z,10.86
2022-09-12T23:03:33.337Z,10.88
2022-09-12T23:05:59.984Z,10.85
2022-09-12T23:08:29.758Z,10.87
2022-09-12T23:11:10.720Z,10.89
2022-09-12T23:13:37.988Z,10.89
2022-09-12T23:16:07.519Z,10.91
2022-09-12T23:18:37.397Z,10.91
2022-09-12T23:21:06.903Z,10.91
2022-09-12T23:23:34.078Z,10.91
2022-09-12T23:26:11.056Z,10.90
2022-09-12T23:28:39.118Z,10.87
2022-09-12T23:31:06.397Z,10.87
2022-09-12T23:33:33.447Z,10.84
2022-09-12T23:36:00.924Z,10.82
2022-09-12T23:38:29.386Z,10.82
2022-09-12T23:40:56.352Z,10.81
2022-09-12T23:43:23.465Z,10.79
2022-09-12T23:45:50.109Z,10.73
2022-09-12T23:48:16.681Z,10.66
2022-09-12T23:50:44.941Z,10.65
2022-09-12T23:53:12.909Z,10.65
2022-09-12T23:55:39.418Z,10.64
2022-09-12T23:58:06.142Z,10.65
